createdAt,value
2022-08-21T00:05:08.164Z,100352.94
2022-08-21T00:15:14.339Z,100342.63
2022-08-21T00:25:24.966Z,100326.34
2022-08-21T00:35:34.824Z,100332.28
2022-08-21T00:45:40.726Z,100334.78
2022-08-21T00:55:45.143Z,100327.03
2022-08-21T01:05:50.991Z,100329.59
2022-08-21T01:15:57.682Z,100332.00
2022-08-21T01:26:02.799Z,100333.59
2022-08-21T01:36:07.244Z,100323.38
2022-08-21T01:46:14.525Z,100337.00
2022-08-21T01:56:19.415Z,100334.16
2022-08-21T02:06:24.663Z,100339.06
2022-08-21T02:16:28.535Z,100329.41
2022-08-21T02:26:35.887Z,100331.13
2022-08-21T02:36:39.595Z,100337.00
2022-08-21T02:46:44.638Z,100330.41
2022-08-21T02:56:48.351Z,100329.56
2022-08-21T03:06:53.506Z,100327.59
2022-08-21T03:16:57.546Z,100330.88
2022-08-21T03:27:02.650Z,100343.03
2022-08-21T03:37:08.203Z,100344.97
2022-08-21T03:47:13.460Z,100350.28
2022-08-21T03:57:17.200Z,100348.44
2022-08-21T04:07:22.351Z,100365.13
2022-08-21T04:17:26.345Z,100376.50
2022-08-21T04:27:31.622Z,100398.22
2022-08-21T04:37:35.424Z,100396.91
2022-08-21T04:47:52.341Z,100407.66
2022-08-21T04:57:57.734Z,100410.81
2022-08-21T05:08:05.408Z,100419.34
2022-08-21T05:18:10.621Z,100429.38
2022-08-21T05:28:15.672Z,100431.16
2022-08-21T05:38:19.485Z,100436.75
2022-08-21T05:48:26.479Z,100437.34
2022-08-21T05:58:30.195Z,100437.53
2022-08-21T06:08:35.620Z,100433.56
2022-08-21T06:18:41.232Z,100427.06
2022-08-21T06:28:46.510Z,100433.22
2022-08-21T06:38:51.746Z,100433.53
2022-08-21T06:48:58.417Z,100428.66
2022-08-21T06:59:02.171Z,100429.81
2022-08-21T07:09:07.493Z,100421.34
2022-08-21T07:19:14.292Z,100422.47
2022-08-21T07:29:19.693Z,100419.06
2022-08-21T07:39:23.407Z,100407.16
2022-08-21T07:49:28.538Z,100396.84
2022-08-21T07:59:32.295Z,100389.19
2022-08-21T08:09:37.915Z,100389.16
2022-08-21T08:19:41.881Z,100377.06
2022-08-21T08:29:47.276Z,100376.06
2022-08-21T08:39:51.234Z,100363.06
2022-08-21T08:50:05.424Z,100343.06
2022-08-21T09:00:14.872Z,100339.41
2022-08-21T09:10:43.193Z,100329.34
2022-08-21T09:20:59.935Z,100301.03
2022-08-21T09:31:08.951Z,100296.69
2022-08-21T09:41:13.344Z,100294.31
2022-08-21T09:51:24.247Z,100292.41
2022-08-21T10:01:33.018Z,100286.88
2022-08-21T10:11:38.726Z,100277.63
2022-08-21T10:21:56.507Z,100270.69
2022-08-21T10:32:22.532Z,100242.00
2022-08-21T10:42:40.667Z,100238.38
2022-08-21T10:53:02.104Z,100229.66
2022-08-21T11:03:11.871Z,100227.75
2022-08-21T11:13:31.082Z,100212.16
2022-08-21T11:23:44.427Z,100206.25
2022-08-21T11:34:12.996Z,100188.72
2022-08-21T11:44:26.288Z,100187.69
2022-08-21T11:54:36.824Z,100184.59
2022-08-21T12:04:49.028Z,100166.88
2022-08-21T12:15:18.226Z,100172.72
2022-08-21T12:25:24.018Z,100157.19
2022-08-21T12:35:38.286Z,100154.94
2022-08-21T12:45:46.485Z,100148.91
2022-08-21T12:55:51.694Z,100144.38
2022-08-21T13:05:56.667Z,100145.66
2022-08-21T13:16:05.716Z,100136.56
2022-08-21T13:26:18.974Z,100123.34
2022-08-21T13:36:29.242Z,100117.66
2022-08-21T13:46:36.927Z,100114.06
2022-08-21T13:56:47.906Z,100095.28
2022-08-21T14:06:52.849Z,100087.56
2022-08-21T14:17:02.207Z,100070.94
2022-08-21T14:27:26.190Z,100070.16
2022-08-21T14:37:31.675Z,100057.75
2022-08-21T14:47:35.381Z,100048.16
2022-08-21T14:57:40.447Z,100048.19
2022-08-21T15:07:45.425Z,100033.47
2022-08-21T15:17:56.334Z,100032.38
2022-08-21T15:28:01.158Z,100037.09
2022-08-21T15:38:06.342Z,100033.94
2022-08-21T15:48:15.095Z,100026.44
2022-08-21T15:58:20.853Z,100020.50
2022-08-21T16:08:26.365Z,100018.75
2022-08-21T16:18:31.573Z,100012.03
2022-08-21T16:28:37.057Z,100012.91
2022-08-21T16:38:43.702Z,100002.38
2022-08-21T16:48:47.732Z,99991.97
2022-08-21T16:58:55.491Z,99982.72
2022-08-21T17:09:01.102Z,99981.00
2022-08-21T17:19:08.166Z,99983.91
2022-08-21T17:29:15.846Z,99989.31
2022-08-21T17:39:22.515Z,99982.72
2022-08-21T17:49:30.466Z,99984.88
2022-08-21T17:59:36.313Z,99985.97
2022-08-21T18:09:40.095Z,99997.69
2022-08-21T18:19:49.026Z,100004.28
2022-08-21T18:29:57.072Z,100014.44
2022-08-21T18:40:02.973Z,100029.34
2022-08-21T18:50:10.863Z,100043.81
2022-08-21T19:00:23.198Z,100050.16
2022-08-21T19:10:30.484Z,100062.28
2022-08-21T19:20:37.375Z,100066.84
2022-08-21T19:41:14.924Z,100095.19
2022-08-21T19:51:18.889Z,100081.72
2022-08-21T20:01:27.783Z,100094.63
2022-08-21T20:11:35.418Z,100090.47
2022-08-21T20:21:43.530Z,100085.41
2022-08-21T20:32:07.819Z,100081.13
2022-08-21T20:42:17.197Z,100084.41
2022-08-21T20:52:23.821Z,100084.19
2022-08-21T21:02:42.895Z,100097.94
2022-08-21T21:12:53.432Z,100098.88
2022-08-21T21:23:15.645Z,100104.13
2022-08-21T21:33:22.179Z,100114.50
2022-08-21T21:43:45.446Z,100110.34
2022-08-21T21:54:03.989Z,100121.47
2022-08-21T22:04:21.077Z,100107.81
2022-08-21T22:14:36.447Z,100131.00
2022-08-21T22:24:47.531Z,100134.47
2022-08-21T22:35:03.922Z,100140.50
2022-08-21T22:55:40.166Z,100143.03
2022-08-21T23:05:49.355Z,100148.16
2022-08-21T23:16:04.878Z,100161.81
2022-08-21T23:26:22.833Z,100154.13
2022-08-21T23:37:04.408Z,100148.13
2022-08-21T23:47:28.608Z,100159.13
2022-08-21T23:57:52.848Z,100164.13
